Time;durP1;ratioP1;P1;durP2;ratioP2;P2;SDS_P1;SDS_P2;PMS_P1;PMS_P2;Temp;Humidity;BMP_temperature;BMP_pressure;BME280_temperature;BME280_humidity;BME280_pressure;Samples;Min_cycle;Max_cycle;Signal;HPM_P1;HPM_P2
2022/06/26 00:00:06;;;;;;;6.42;3.98;;;;;;;25.71;52.53;101306.41;1736534;81;21034;-50
2022/06/26 00:02:34;;;;;;;5.87;4.22;;;;;;;25.73;53.01;101310.28;1748896;80;21010;-50
2022/06/26 00:05:02;;;;;;;4.05;3.65;;;;;;;25.72;53.24;101313.90;1711722;83;21049;-50
2022/06/26 00:07:30;;;;;;;4.72;4.35;;;;;;;25.73;52.96;101312.95;1710993;83;21010;-51
2022/06/26 00:09:57;;;;;;;3.92;3.52;;;;;;;25.73;52.49;101311.61;1711317;83;20982;-48
2022/06/26 00:12:24;;;;;;;5.78;3.80;;;;;;;25.72;52.52;101306.76;1710584;83;21025;-50
2022/06/26 00:14:50;;;;;;;3.47;3.22;;;;;;;25.71;51.69;101312.22;1711102;83;21077;-48
2022/06/26 00:17:17;;;;;;;4.33;3.87;;;;;;;25.69;51.59;101312.34;1713632;83;20998;-49
2022/06/26 00:19:44;;;;;;;4.95;3.90;;;;;;;25.67;51.90;101320.94;1714214;83;21502;-52
2022/06/26 00:22:12;;;;;;;6.75;3.95;;;;;;;25.64;52.40;101323.81;1713360;83;21045;-48
2022/06/26 00:24:42;;;;;;;4.22;3.75;;;;;;;25.58;52.48;101317.62;1711346;83;21018;-49
2022/06/26 00:27:08;;;;;;;3.98;3.50;;;;;;;25.52;52.84;101319.41;1716824;83;21025;-50
2022/06/26 00:29:35;;;;;;;4.10;3.70;;;;;;;25.49;53.01;101323.62;1709453;83;21014;-49
2022/06/26 00:32:03;;;;;;;6.85;3.87;;;;;;;25.46;53.20;101331.86;1717820;83;21037;-49
2022/06/26 00:34:30;;;;;;;6.00;3.90;;;;;;;25.42;53.31;101333.06;1711156;83;21082;-48
2022/06/26 00:36:57;;;;;;;3.83;3.52;;;;;;;25.38;53.04;101324.03;1711132;83;21487;-48
2022/06/26 00:39:24;;;;;;;4.58;3.80;;;;;;;25.32;52.93;101321.36;1711820;83;21033;-49
2022/06/26 00:41:54;;;;;;;7.72;4.15;;;;;;;25.32;52.93;101321.36;1714212;83;21497;-49
2022/06/26 00:44:23;;;;;;;3.60;3.30;;;;;;;25.28;52.89;101310.56;1714062;83;21041;-49
2022/06/26 00:46:50;;;;;;;4.10;3.70;;;;;;;25.31;52.91;101317.45;1651838;86;21035;-49
2022/06/26 00:49:17;;;;;;;4.90;4.10;;;;;;;25.32;52.70;101309.37;1697875;83;21022;-48
2022/06/26 00:51:50;;;;;;;4.25;3.85;;;;;;;25.31;52.71;101312.98;1699179;84;20999;-48
2022/06/26 00:54:17;;;;;;;4.97;3.60;;;;;;;25.30;52.67;101303.78;1700892;84;21058;-48
2022/06/26 00:56:43;;;;;;;4.58;3.35;;;;;;;25.32;52.63;101310.70;1690350;83;21027;-50
2022/06/26 00:59:10;;;;;;;4.67;4.28;;;;;;;25.36;52.54;101306.84;1697254;83;21070;-50
2022/06/26 01:01:37;;;;;;;5.70;4.37;;;;;;;25.38;52.37;101308.05;1696434;84;21078;-49
2022/06/26 01:04:05;;;;;;;4.00;3.70;;;;;;;25.39;52.40;101306.59;1692648;83;21121;-50
2022/06/26 01:06:32;;;;;;;5.20;3.62;;;;;;;25.36;52.45;101306.84;1689422;83;21023;-49
2022/06/26 01:08:59;;;;;;;3.67;3.37;;;;;;;25.30;52.30;101308.63;1690565;84;21038;-49
2022/06/26 01:11:28;;;;;;;3.58;3.27;;;;;;;25.33;52.28;101312.86;1693299;83;21479;-48
2022/06/26 01:13:56;;;;;;;4.50;4.10;;;;;;;25.33;52.28;101312.86;1692674;84;21082;-54
2022/06/26 01:16:25;;;;;;;4.35;3.58;;;;;;;25.30;52.38;101319.28;1691144;84;21038;-49
2022/06/26 01:18:55;;;;;;;3.77;3.47;;;;;;;25.26;52.24;101308.49;1689979;83;20986;-49
2022/06/26 01:21:23;;;;;;;4.65;3.95;;;;;;;25.21;52.46;101312.44;1679715;83;21163;-50
2022/06/26 01:23:50;;;;;;;4.72;3.47;;;;;;;25.21;52.46;101312.44;1688489;84;21046;-49
2022/06/26 01:26:17;;;;;;;5.05;4.55;;;;;;;25.16;52.71;101312.80;1693555;84;21083;-48
2022/06/26 01:28:44;;;;;;;3.95;3.50;;;;;;;25.14;52.67;101305.41;1692328;83;21515;-50
2022/06/26 01:31:11;;;;;;;4.70;3.45;;;;;;;25.13;52.75;101305.02;1689906;83;21047;-48
2022/06/26 01:33:38;;;;;;;4.28;3.85;;;;;;;25.08;52.97;101305.83;1690149;83;21578;-48
2022/06/26 01:36:07;;;;;;;4.15;3.47;;;;;;;25.08;53.12;101316.48;1684582;83;21039;-52
2022/06/26 01:38:35;;;;;;;3.37;3.17;;;;;;;25.08;53.03;101313.81;1692329;83;21039;-48
2022/06/26 01:41:02;;;;;;;3.60;3.27;;;;;;;25.08;53.03;101313.81;1690007;83;21108;-52
2022/06/26 01:43:32;;;;;;;3.33;3.02;;;;;;;25.09;53.22;101321.33;1715487;81;21558;-51
2022/06/26 01:45:59;;;;;;;3.62;3.33;;;;;;;25.09;53.54;101324.85;1742107;82;21455;-50
2022/06/26 01:48:32;;;;;;;4.00;3.60;;;;;;;25.10;53.54;101323.88;1744204;81;21030;-52
2022/06/26 01:51:00;;;;;;;3.40;3.10;;;;;;;25.11;53.46;101320.27;1728747;81;21057;-51
2022/06/26 01:53:28;;;;;;;3.67;3.37;;;;;;;25.11;53.15;101330.91;1707358;83;20966;-51
2022/06/26 01:55:56;;;;;;;3.65;3.35;;;;;;;25.08;53.19;101344.44;1743421;82;21014;-48
2022/06/26 01:58:33;;;;;;;4.35;3.40;;;;;;;25.08;53.19;101344.44;1738574;82;21097;-51
2022/06/26 02:01:00;;;;;;;5.10;3.60;;;;;;;25.05;53.04;101347.34;1744946;81;20986;-48
2022/06/26 02:03:28;;;;;;;3.62;3.33;;;;;;;25.01;53.12;101348.53;1701037;84;21455;-51
2022/06/26 02:05:55;;;;;;;5.22;3.60;;;;;;;24.99;53.10;101358.44;1734058;81;21070;-53
2022/06/26 02:08:22;;;;;;;3.98;3.67;;;;;;;24.98;53.02;101355.39;1725252;81;21047;-51
2022/06/26 02:13:37;;;;;;;3.55;3.25;;;;;;;24.94;53.05;101359.23;1698079;84;21010;-51
2022/06/26 02:16:26;;;;;;;4.47;3.47;;;;;;;24.89;53.04;101361.39;1700237;84;21074;-51
2022/06/26 02:18:56;;;;;;;4.58;3.60;;;;;;;24.85;53.13;101359.91;1697338;84;21014;-52
2022/06/26 02:21:27;;;;;;;3.90;3.58;;;;;;;24.81;53.28;101367.24;1729448;81;21452;-50
2022/06/26 02:23:57;;;;;;;3.52;3.17;;;;;;;24.80;53.26;101370.88;1698601;84;21502;-48
2022/06/26 02:26:23;;;;;;;3.72;3.30;;;;;;;24.80;53.23;101364.70;1698197;84;21073;-51
2022/06/26 02:28:52;;;;;;;3.60;3.30;;;;;;;24.80;53.28;101366.03;1732186;81;21002;-49
2022/06/26 02:31:19;;;;;;;3.92;3.62;;;;;;;24.81;53.37;101369.91;1700956;84;21014;-51
2022/06/26 02:33:48;;;;;;;3.40;3.10;;;;;;;24.81;53.19;101359.77;1701238;84;21014;-51
2022/06/26 02:36:15;;;;;;;3.67;3.37;;;;;;;24.81;53.26;101361.09;1735156;81;21059;-50
2022/06/26 02:38:42;;;;;;;3.80;3.50;;;;;;;24.81;53.35;101363.75;1733303;82;21019;-48
2022/06/26 02:41:09;;;;;;;3.77;3.45;;;;;;;24.81;53.52;101363.75;1688454;84;20983;-50
2022/06/26 02:43:36;;;;;;;3.75;3.45;;;;;;;24.77;53.68;101363.61;1736691;81;21527;-51
2022/06/26 02:46:05;;;;;;;5.55;3.35;;;;;;;24.74;53.82;101370.46;1699496;84;21090;-50
2022/06/26 02:48:33;;;;;;;4.08;3.40;;;;;;;24.71;53.98;101373.33;1697952;84;21549;-50
2022/06/26 02:50:59;;;;;;;6.15;3.42;;;;;;;24.67;54.05;101381.12;1699570;84;21034;-49
2022/06/26 02:53:26;;;;;;;5.55;3.80;;;;;;;24.65;54.20;101387.03;1698100;84;21526;-48
2022/06/26 02:55:53;;;;;;;4.05;3.70;;;;;;;24.64;54.13;101392.00;1697933;84;21006;-49
2022/06/26 02:58:21;;;;;;;6.60;3.47;;;;;;;24.64;54.27;101386.67;1698343;84;21046;-49
2022/06/26 03:00:52;;;;;;;3.58;3.30;;;;;;;24.64;54.46;101382.22;1733518;81;21023;-50
2022/06/26 03:03:20;;;;;;;4.90;3.72;;;;;;;24.63;54.49;101381.83;1734203;81;21007;-52
2022/06/26 03:05:47;;;;;;;4.08;3.72;;;;;;;24.64;54.41;101382.22;1736576;81;21125;-49
2022/06/26 03:08:14;;;;;;;5.42;3.67;;;;;;;24.62;54.40;101377.95;1701349;84;21074;-50
2022/06/26 03:10:41;;;;;;;4.47;3.50;;;;;;;24.61;54.51;101381.55;1697259;84;21510;-50
2022/06/26 03:13:09;;;;;;;3.83;3.52;;;;;;;24.59;54.62;101382.14;1731914;82;21010;-50
2022/06/26 03:15:36;;;;;;;4.50;3.60;;;;;;;24.58;54.73;101387.11;1738225;81;21011;-49
2022/06/26 03:18:03;;;;;;;4.10;3.58;;;;;;;24.57;54.81;101388.05;1735886;81;21019;-51
2022/06/26 03:20:30;;;;;;;4.10;3.80;;;;;;;24.56;54.99;101389.02;1726621;81;21027;-48
2022/06/26 03:22:57;;;;;;;4.30;3.95;;;;;;;24.59;55.19;101402.09;1733677;81;21027;-49
2022/06/26 03:25:24;;;;;;;3.87;3.58;;;;;;;24.61;55.20;101397.52;1729872;81;21020;-51
2022/06/26 03:27:51;;;;;;;4.40;3.75;;;;;;;24.60;55.21;101403.81;1736522;81;21063;-52
2022/06/26 03:30:19;;;;;;;4.33;3.85;;;;;;;24.59;55.06;101397.63;1700070;84;21029;-48
2022/06/26 03:32:47;;;;;;;4.60;3.80;;;;;;;24.58;54.84;101397.75;1732722;81;21019;-51
2022/06/26 03:35:14;;;;;;;4.15;3.75;;;;;;;24.56;54.91;101392.55;1700758;84;21479;-49
2022/06/26 03:37:42;;;;;;;4.92;3.92;;;;;;;24.55;54.64;101393.95;1697934;84;21029;-49
2022/06/26 03:40:10;;;;;;;5.92;3.98;;;;;;;24.51;54.37;101391.14;1698394;84;21026;-50
2022/06/26 03:42:38;;;;;;;3.90;3.60;;;;;;;24.49;54.24;101389.06;1698474;84;21494;-49
2022/06/26 03:45:07;;;;;;;4.17;3.77;;;;;;;24.49;54.30;101391.72;1697998;84;21017;-49
2022/06/26 03:47:35;;;;;;;4.58;4.17;;;;;;;24.48;54.28;101390.04;1698712;82;21010;-50
2022/06/26 03:50:02;;;;;;;5.85;4.28;;;;;;;24.47;54.48;101395.83;1700863;84;21066;-49
2022/06/26 03:52:31;;;;;;;4.97;4.47;;;;;;;24.48;54.41;101403.34;1701061;84;21514;-48
2022/06/26 03:55:00;;;;;;;4.40;3.98;;;;;;;24.47;54.48;101394.97;1697845;84;21042;-49
2022/06/26 03:57:27;;;;;;;4.25;3.75;;;;;;;24.48;54.50;101394.03;1698338;84;21540;-48
2022/06/26 03:59:55;;;;;;;4.72;4.33;;;;;;;24.49;54.62;101388.59;1699769;84;21022;-51
2022/06/26 04:02:23;;;;;;;4.75;4.22;;;;;;;24.58;54.80;101392.43;1738009;81;21044;-50
2022/06/26 04:04:50;;;;;;;4.75;4.30;;;;;;;24.70;54.58;101398.22;1750432;80;21046;-49
2022/06/26 04:07:20;;;;;;;4.33;3.92;;;;;;;24.83;54.20;101399.10;1713933;83;20986;-49
2022/06/26 04:09:50;;;;;;;;;;;;;;;24.94;53.92;101399.17;1711531;83;21541;-49
2022/06/26 04:12:18;;;;;;;4.80;4.30;;;;;;;25.02;53.81;101404.33;1627823;87;20143;-50
2022/06/26 04:14:47;;;;;;;5.42;3.92;;;;;;;25.11;53.84;101397.49;1629987;87;21083;-50
2022/06/26 04:17:16;;;;;;;4.35;3.95;;;;;;;25.21;53.70;101403.86;1627463;87;21056;-48
2022/06/26 04:19:47;;;;;;;4.97;3.90;;;;;;;25.36;52.97;101405.41;1628785;87;21063;-49
2022/06/26 04:22:14;;;;;;;5.65;4.72;;;;;;;25.41;52.85;101408.61;1630518;87;21067;-50
2022/06/26 04:24:41;;;;;;;6.17;4.65;;;;;;;25.41;52.85;101408.61;1634764;87;21557;-50
2022/06/26 04:27:08;;;;;;;4.92;4.42;;;;;;;25.43;52.57;101404.02;1633150;87;21035;-50
2022/06/26 04:29:35;;;;;;;7.58;4.40;;;;;;;25.42;52.40;101410.33;1632576;87;21087;-54
2022/06/26 04:32:04;;;;;;;5.87;4.55;;;;;;;25.36;52.37;101409.41;1631337;87;21032;-51
2022/06/26 04:34:32;;;;;;;5.55;4.22;;;;;;;25.19;52.52;101413.77;1621511;87;20987;-52
2022/06/26 04:37:00;;;;;;;4.53;4.12;;;;;;;25.19;52.52;101413.77;1629636;87;21088;-48
2022/06/26 04:39:27;;;;;;;4.78;4.28;;;;;;;25.10;53.13;101418.92;1630955;87;21127;-48
2022/06/26 04:41:54;;;;;;;4.53;4.12;;;;;;;25.08;53.40;101421.66;1632528;87;21040;-51
2022/06/26 04:44:21;;;;;;;5.70;4.45;;;;;;;25.08;53.40;101421.66;1632336;87;21073;-48
2022/06/26 04:46:50;;;;;;;5.40;4.70;;;;;;;25.12;53.28;101419.66;1636118;87;21067;-49
2022/06/26 04:49:16;;;;;;;4.70;4.28;;;;;;;25.12;53.28;101419.66;1631498;87;21052;-49
2022/06/26 04:51:43;;;;;;;5.58;4.62;;;;;;;25.20;53.37;101412.83;1631498;87;21107;-52
2022/06/26 04:54:27;;;;;;;5.25;4.75;;;;;;;25.20;53.37;101412.83;1572921;91;21553;-50
2022/06/26 04:56:54;;;;;;;5.10;4.60;;;;;;;25.26;53.65;101410.19;1545165;90;21059;-50
2022/06/26 04:59:21;;;;;;;5.50;4.37;;;;;;;25.26;53.65;101410.19;1599030;88;21084;-48
2022/06/26 05:01:48;;;;;;;5.58;5.08;;;;;;;25.30;53.70;101415.19;1558430;90;21085;-50
2022/06/26 05:04:17;;;;;;;5.15;4.72;;;;;;;25.35;53.72;101411.69;1583864;89;21226;-49
2022/06/26 05:06:58;;;;;;;5.42;4.83;;;;;;;25.40;53.80;101409.55;1583898;89;21086;-51
2022/06/26 05:09:28;;;;;;;5.37;4.75;;;;;;;25.71;53.25;101411.70;1591230;89;21574;-52
2022/06/26 05:11:55;;;;;;;5.47;4.72;;;;;;;25.71;53.25;101411.70;1592751;87;21511;-50
2022/06/26 05:14:23;;;;;;;4.97;4.58;;;;;;;26.05;52.61;101414.52;1593091;87;21014;-52
2022/06/26 05:16:51;;;;;;;4.70;4.22;;;;;;;26.05;52.61;101414.52;1573417;89;21090;-49
2022/06/26 05:19:20;;;;;;;6.12;5.10;;;;;;;26.22;52.52;101408.75;1590352;87;21067;-49
2022/06/26 05:21:47;;;;;;;6.53;4.17;;;;;;;26.38;52.06;101413.27;1591181;87;21086;-53
2022/06/26 05:24:14;;;;;;;4.75;4.35;;;;;;;26.55;51.85;101411.48;1592909;87;21551;-50
2022/06/26 05:26:43;;;;;;;4.97;4.47;;;;;;;26.74;51.61;101411.79;1574545;89;21581;-50
2022/06/26 05:29:10;;;;;;;6.67;4.65;;;;;;;26.86;51.33;101410.81;1564238;91;21088;-49
2022/06/26 05:31:38;;;;;;;4.75;4.45;;;;;;;26.91;51.27;101417.13;1560516;89;21070;-50
2022/06/26 05:34:05;;;;;;;4.72;4.33;;;;;;;26.91;51.07;101416.66;1590745;87;21078;-51
2022/06/26 05:36:33;;;;;;;5.03;4.50;;;;;;;26.92;51.01;101415.67;1602720;87;21598;-53
2022/06/26 05:39:01;;;;;;;4.60;4.20;;;;;;;26.92;51.05;101418.34;1591832;87;21042;-51
2022/06/26 05:41:30;;;;;;;5.03;4.58;;;;;;;27.00;50.74;101421.25;1560469;89;21110;-51
2022/06/26 05:43:57;;;;;;;5.47;4.97;;;;;;;27.07;50.64;101422.95;1590503;87;21522;-54
2022/06/26 05:46:26;;;;;;;4.87;4.35;;;;;;;27.13;50.47;101418.45;1645330;82;21107;-50
2022/06/26 05:48:53;;;;;;;4.95;4.45;;;;;;;27.18;50.25;101421.11;1710769;82;21058;-51
2022/06/26 05:51:34;;;;;;;4.40;4.00;;;;;;;27.22;50.12;101423.89;1702591;83;22122;-52
2022/06/26 05:54:08;;;;;;;6.00;4.00;;;;;;;27.30;50.09;101425.48;1703915;83;21049;-52
2022/06/26 05:56:39;;;;;;;5.12;4.03;;;;;;;27.39;50.04;101433.25;1702542;83;21037;-49
2022/06/26 05:59:17;;;;;;;4.40;4.08;;;;;;;27.51;50.04;101434.09;1687527;84;21103;-49
2022/06/26 06:01:45;;;;;;;4.65;4.25;;;;;;;27.67;49.84;101431.86;1690355;84;21527;-51
2022/06/26 06:04:14;;;;;;;5.55;4.12;;;;;;;27.80;49.54;101437.91;1707582;83;21142;-50
2022/06/26 06:06:41;;;;;;;4.80;4.30;;;;;;;27.89;49.33;101438.46;1709018;83;21097;-49
2022/06/26 06:09:08;;;;;;;5.17;4.45;;;;;;;27.93;49.20;101439.42;1708812;83;21026;-52
2022/06/26 06:11:35;;;;;;;5.05;4.00;;;;;;;27.91;49.08;101441.86;1708861;83;21037;-49
2022/06/26 06:14:03;;;;;;;5.10;4.42;;;;;;;27.86;48.96;101448.09;1709049;83;21086;-52
2022/06/26 06:16:31;;;;;;;4.25;3.90;;;;;;;27.80;49.04;101441.92;1708835;83;21565;-51
2022/06/26 06:18:59;;;;;;;4.30;3.90;;;;;;;27.78;49.25;101442.53;1709130;84;21090;-50
2022/06/26 06:21:28;;;;;;;8.93;4.33;;;;;;;27.79;49.05;101440.20;1708924;83;21047;-50
2022/06/26 06:23:54;;;;;;;3.80;3.50;;;;;;;27.86;48.89;101441.41;1709018;83;21539;-51
2022/06/26 06:26:21;;;;;;;4.22;3.83;;;;;;;27.97;48.61;101448.92;1708879;83;21035;-49
2022/06/26 06:28:49;;;;;;;4.62;3.55;;;;;;;28.14;48.39;101444.35;1696157;83;21535;-51
2022/06/26 06:31:16;;;;;;;4.00;3.70;;;;;;;28.39;48.06;101442.27;1708949;83;21559;-49
2022/06/26 06:33:43;;;;;;;3.77;3.47;;;;;;;28.66;47.50;101434.09;1709052;83;21077;-50
2022/06/26 06:36:11;;;;;;;4.33;3.92;;;;;;;28.89;46.57;101432.91;1708859;83;21102;-53
2022/06/26 06:38:38;;;;;;;3.70;3.40;;;;;;;29.09;46.20;101431.66;1709257;84;21046;-48
2022/06/26 06:41:07;;;;;;;4.45;3.80;;;;;;;29.20;45.94;101432.45;1708863;83;21074;-46
2022/06/26 06:43:46;;;;;;;4.12;3.72;;;;;;;29.25;45.70;101435.56;1708225;83;21074;-49
2022/06/26 06:46:27;;;;;;;4.20;3.80;;;;;;;29.25;45.69;101432.02;1704727;83;21129;-48
2022/06/26 06:49:03;;;;;;;4.05;3.65;;;;;;;29.23;45.68;101436.19;1707558;84;21050;-48
2022/06/26 06:51:43;;;;;;;5.33;3.37;;;;;;;29.18;45.67;101433.57;1709020;84;21078;-48
2022/06/26 06:54:10;;;;;;;4.37;4.00;;;;;;;29.10;45.92;101432.86;1710829;83;21025;-47
2022/06/26 06:56:37;;;;;;;4.20;3.90;;;;;;;29.05;46.22;101435.59;1723915;82;21073;-48
2022/06/26 06:59:04;;;;;;;4.78;4.28;;;;;;;28.96;46.20;101435.42;1724174;82;21057;-48
2022/06/26 07:01:31;;;;;;;5.15;3.95;;;;;;;28.89;46.40;101440.13;1706534;83;21065;-47
2022/06/26 07:04:00;;;;;;;4.22;3.92;;;;;;;28.83;46.41;101444.17;1744140;80;21526;-49
2022/06/26 07:06:27;;;;;;;5.10;3.90;;;;;;;28.81;46.70;101438.61;1744289;80;21066;-49
2022/06/26 07:08:54;;;;;;;4.50;4.10;;;;;;;28.80;46.90;101441.77;1713870;83;21081;-49
2022/06/26 07:11:21;;;;;;;4.05;3.75;;;;;;;28.83;46.95;101449.53;1714135;83;21033;-51
2022/06/26 07:13:48;;;;;;;4.12;3.83;;;;;;;28.88;46.70;101453.16;1711503;83;21064;-50
2022/06/26 07:16:14;;;;;;;5.00;4.60;;;;;;;28.89;46.67;101451.67;1712895;83;21045;-50
2022/06/26 07:18:41;;;;;;;5.45;3.87;;;;;;;28.93;46.64;101455.77;1712589;83;21062;-51
2022/06/26 07:21:09;;;;;;;5.08;3.80;;;;;;;28.98;46.66;101458.06;1713758;83;21014;-48
2022/06/26 07:23:37;;;;;;;4.37;4.08;;;;;;;29.04;46.78;101456.70;1714043;83;21002;-51
2022/06/26 07:26:08;;;;;;;4.40;4.00;;;;;;;29.14;46.78;101454.90;1708988;83;21070;-50
2022/06/26 07:28:37;;;;;;;4.00;3.60;;;;;;;29.28;46.50;101461.25;1710769;83;21486;-50
2022/06/26 07:31:04;;;;;;;3.85;3.55;;;;;;;29.42;45.95;101457.70;1711169;83;21073;-49
2022/06/26 07:36:16;;;;;;;4.37;3.98;;;;;;;29.70;45.20;101474.81;1702008;83;21109;-47
2022/06/26 07:38:44;;;;;;;4.58;4.17;;;;;;;29.78;45.34;101475.00;1713866;83;21065;-48
2022/06/26 07:41:11;;;;;;;5.40;4.65;;;;;;;29.83;45.80;101475.93;1713576;83;21022;-51
2022/06/26 07:43:38;;;;;;;4.45;4.05;;;;;;;29.82;45.83;101481.78;1710928;83;21018;-48
2022/06/26 07:46:05;;;;;;;4.22;3.92;;;;;;;29.77;45.66;101484.54;1711129;83;21025;-49
2022/06/26 07:48:33;;;;;;;4.12;3.72;;;;;;;29.69;45.38;101488.75;1710716;83;21085;-51
2022/06/26 07:51:01;;;;;;;4.70;4.30;;;;;;;29.63;45.09;101489.79;1705688;83;21077;-47
2022/06/26 07:53:28;;;;;;;3.58;3.27;;;;;;;29.56;44.64;101484.13;1713323;83;20971;-48
2022/06/26 07:55:54;;;;;;;4.78;3.62;;;;;;;29.51;44.75;101482.84;1714013;83;21042;-53
2022/06/26 07:58:21;;;;;;;5.30;3.80;;;;;;;29.46;44.45;101482.39;1709633;83;21025;-47
2022/06/26 08:00:48;;;;;;;3.85;3.50;;;;;;;29.39;44.75;101479.41;1710867;83;21545;-48
2022/06/26 08:03:15;;;;;;;3.52;3.22;;;;;;;29.35;44.60;101486.52;1709046;83;21042;-48
2022/06/26 08:05:42;;;;;;;3.65;3.10;;;;;;;29.36;44.69;101489.56;1700995;83;21081;-50
2022/06/26 08:08:10;;;;;;;3.85;3.55;;;;;;;29.37;44.68;101491.25;1708588;83;21545;-48
2022/06/26 08:10:38;;;;;;;4.15;3.77;;;;;;;29.41;46.09;101500.71;1736140;81;21030;-49
2022/06/26 08:13:06;;;;;;;4.97;3.60;;;;;;;29.47;46.76;101505.05;1735166;82;21093;-54
2022/06/26 08:15:32;;;;;;;5.47;4.28;;;;;;;29.51;46.73;101510.48;1744567;81;20990;-47
2022/06/26 08:17:59;;;;;;;5.08;4.55;;;;;;;29.54;46.59;101506.69;1742596;81;20995;-47
2022/06/26 08:20:26;;;;;;;10.08;4.33;;;;;;;29.53;46.53;101500.98;1740742;81;21027;-50
2022/06/26 08:22:53;;;;;;;5.20;4.40;;;;;;;29.50;46.39;101502.10;1741472;81;21031;-47
2022/06/26 08:25:20;;;;;;;5.22;4.83;;;;;;;29.44;46.38;101499.97;1741335;81;21054;-46
2022/06/26 08:27:47;;;;;;;4.45;4.08;;;;;;;29.36;46.47;101505.65;1705590;82;20994;-51
2022/06/26 08:30:14;;;;;;;5.12;4.08;;;;;;;29.24;46.44;101504.06;1708026;83;21597;-49
2022/06/26 08:32:41;;;;;;;4.95;4.55;;;;;;;29.14;46.47;101500.45;1708859;83;21001;-47
2022/06/26 08:35:10;;;;;;;4.83;4.17;;;;;;;29.04;46.57;101508.95;1743141;81;21018;-49
2022/06/26 08:37:37;;;;;;;5.45;4.03;;;;;;;28.88;46.84;101494.19;1741656;81;21042;-51
2022/06/26 08:40:06;;;;;;;4.33;3.98;;;;;;;28.75;47.01;101494.88;1743021;82;21027;-49
2022/06/26 08:42:33;;;;;;;4.72;4.33;;;;;;;28.64;47.33;101485.60;1732297;81;20975;-50
2022/06/26 08:45:00;;;;;;;6.87;4.05;;;;;;;28.55;47.69;101474.30;1743024;81;21089;-46
2022/06/26 08:47:29;;;;;;;4.37;3.98;;;;;;;28.48;48.04;101473.11;1740115;82;21506;-47
2022/06/26 08:49:55;;;;;;;4.20;3.90;;;;;;;28.41;48.25;101477.30;1744561;81;21058;-48
2022/06/26 08:52:22;;;;;;;5.40;4.45;;;;;;;28.38;48.24;101480.22;1742998;81;21015;-47
2022/06/26 08:54:51;;;;;;;5.53;4.10;;;;;;;28.33;48.50;101485.61;1741407;81;21046;-48
2022/06/26 08:57:17;;;;;;;4.65;4.25;;;;;;;28.29;48.61;101498.42;1741225;81;20995;-49
2022/06/26 08:59:44;;;;;;;4.00;3.70;;;;;;;28.26;48.81;101501.34;1705864;83;21041;-48
2022/06/26 09:02:12;;;;;;;4.20;3.90;;;;;;;28.24;48.68;101501.95;1705633;83;21502;-53
2022/06/26 09:04:39;;;;;;;6.00;4.28;;;;;;;28.24;48.65;101503.30;1706764;83;21027;-49
2022/06/26 09:07:07;;;;;;;4.45;4.00;;;;;;;28.29;49.04;101514.95;1744321;81;21034;-47
2022/06/26 09:09:42;;;;;;;4.50;4.10;;;;;;;28.38;49.15;101525.73;1708638;83;21057;-47
2022/06/26 09:12:10;;;;;;;4.58;4.10;;;;;;;28.48;48.90;101527.98;1744097;81;21034;-47
2022/06/26 09:14:37;;;;;;;4.35;4.05;;;;;;;28.57;48.79;101529.94;1739961;82;21519;-47
2022/06/26 09:17:05;;;;;;;4.90;4.00;;;;;;;28.63;48.51;101530.75;1742406;81;21542;-47
2022/06/26 09:19:36;;;;;;;5.40;3.60;;;;;;;28.67;48.48;101533.53;1741475;81;21054;-48
2022/06/26 09:22:12;;;;;;;3.80;3.50;;;;;;;28.68;48.21;101547.30;1734495;81;21058;-47
2022/06/26 09:24:41;;;;;;;3.80;3.50;;;;;;;28.65;48.05;101550.22;1683516;85;21522;-47
2022/06/26 09:27:10;;;;;;;4.80;3.90;;;;;;;28.62;47.81;101546.48;1683569;85;21586;-52
2022/06/26 09:29:39;;;;;;;4.03;3.63;;;;;;;28.58;47.87;101532.13;1682134;85;21562;-49
2022/06/26 09:32:12;;;;;;;4.05;3.70;;;;;;;28.54;47.97;101532.83;1681049;85;21014;-48
2022/06/26 09:34:49;;;;;;;4.97;3.60;;;;;;;28.50;47.84;101531.39;1679998;84;21542;-48
2022/06/26 09:37:16;;;;;;;3.65;2.67;;;;;;;28.43;47.91;101528.88;1651436;86;21598;-48
2022/06/26 09:39:43;;;;;;;1.87;1.60;;;;;;;28.33;47.23;101527.96;1645874;86;21039;-51
2022/06/26 09:42:19;;;;;;;2.37;1.30;;;;;;;28.25;44.69;101521.55;1642282;86;21023;-48
2022/06/26 09:44:53;;;;;;;1.85;1.32;;;;;;;28.17;43.26;101513.66;1646498;86;21051;-50
2022/06/26 09:47:27;;;;;;;1.98;1.20;;;;;;;28.12;42.92;101511.01;1646717;86;21090;-47
2022/06/26 09:49:56;;;;;;;2.12;1.62;;;;;;;28.07;43.31;101506.52;1640703;86;21530;-51
2022/06/26 09:52:26;;;;;;;4.03;1.62;;;;;;;28.02;43.61;101500.71;1647558;86;21539;-50
2022/06/26 09:54:53;;;;;;;2.00;1.80;;;;;;;28.01;44.05;101494.98;1646394;85;21074;-48
2022/06/26 09:57:20;;;;;;;1.95;1.75;;;;;;;28.01;44.46;101493.16;1646829;86;21027;-49
2022/06/26 09:59:47;;;;;;;6.60;1.90;;;;;;;28.02;44.18;101490.02;1646212;85;21079;-48
2022/06/26 10:07:53;;;;;;;3.20;1.50;;;;;;;27.94;42.85;101501.80;1539811;91;21044;-50
2022/06/26 10:10:23;;;;;;;3.33;1.70;;;;;;;27.94;42.74;101507.16;1540006;91;21059;-50
2022/06/26 10:12:53;;;;;;;1.87;1.40;;;;;;;27.94;42.94;101512.50;1539631;91;21600;-49
2022/06/26 10:15:22;;;;;;;5.70;2.17;;;;;;;27.95;43.08;101511.52;1574804;89;21165;-48
2022/06/26 10:17:57;;;;;;;2.98;1.77;;;;;;;27.97;43.38;101513.61;1587238;89;20990;-49
2022/06/26 10:20:24;;;;;;;1.42;1.32;;;;;;;27.97;43.30;101516.28;1582494;89;21347;-51
2022/06/26 10:22:51;;;;;;;3.00;1.55;;;;;;;27.95;42.80;101526.22;1586192;89;21065;-48
2022/06/26 10:25:27;;;;;;;2.80;1.72;;;;;;;27.93;43.14;101518.81;1575259;89;21077;-50
2022/06/26 10:27:54;;;;;;;5.83;1.50;;;;;;;27.91;42.95;101509.59;1546033;91;21114;-49
2022/06/26 10:30:25;;;;;;;6.28;2.70;;;;;;;27.90;42.88;101519.08;1546666;92;21099;-49
2022/06/26 10:33:20;;;;;;;11.22;3.45;;;;;;;27.87;44.15;101513.97;1544052;92;21234;-48
2022/06/26 10:35:49;;;;;;;7.65;3.05;;;;;;;27.85;45.55;101503.88;1543953;91;21098;-49
2022/06/26 10:38:22;;;;;;;12.30;3.92;;;;;;;27.79;46.72;101501.72;1543990;92;21074;-48
2022/06/26 10:43:59;;;;;;;6.35;3.22;;;;;;;27.68;47.72;101491.89;1503327;94;21061;-48
2022/06/26 10:46:27;;;;;;;8.75;3.37;;;;;;;27.65;47.84;101484.61;1474885;96;21145;-54
2022/06/26 10:48:55;;;;;;;8.70;3.12;;;;;;;27.62;47.70;101484.84;1481327;96;21109;-50
2022/06/26 10:51:28;;;;;;;5.47;2.50;;;;;;;27.63;47.77;101486.56;1479466;96;21131;-51
2022/06/26 10:53:55;;;;;;;2.72;2.30;;;;;;;27.64;47.49;101490.92;1489535;95;21082;-48
2022/06/26 10:56:22;;;;;;;4.35;1.98;;;;;;;27.63;46.17;101497.26;1493839;95;21642;-54
2022/06/26 10:58:49;;;;;;;4.30;1.95;;;;;;;27.62;45.97;101499.55;1470314;96;21116;-49
2022/06/26 11:01:17;;;;;;;2.95;1.98;;;;;;;27.64;45.96;101502.95;1493747;95;21094;-49
2022/06/26 11:03:45;;;;;;;2.10;1.77;;;;;;;27.64;45.72;101499.80;1506996;92;21532;-49
2022/06/26 11:06:14;;;;;;;3.65;1.80;;;;;;;27.67;45.49;101499.56;1503971;94;21129;-48
2022/06/26 11:08:50;;;;;;;2.25;1.80;;;;;;;27.70;45.40;101502.48;1523182;93;21594;-49
2022/06/26 11:11:25;;;;;;;3.55;2.00;;;;;;;27.73;45.30;101507.56;1534800;90;21152;-49
2022/06/26 11:13:57;;;;;;;2.33;2.12;;;;;;;27.74;45.70;101499.92;1509135;93;21133;-48
2022/06/26 11:16:41;;;;;;;2.35;2.15;;;;;;;27.76;45.77;101505.99;1507051;93;21080;-52
2022/06/26 11:19:32;;;;;;;2.00;1.90;;;;;;;27.77;45.22;101502.33;1469218;97;21123;-50
2022/06/26 11:22:12;;;;;;;2.15;1.77;;;;;;;27.77;45.59;101507.68;1482563;96;21164;-50
2022/06/26 11:24:50;;;;;;;1.70;1.60;;;;;;;27.76;46.95;101500.64;1474215;96;21108;-50
2022/06/26 11:27:25;;;;;;;1.75;1.52;;;;;;;27.71;47.53;101500.16;1491313;95;21638;-48
2022/06/26 11:29:53;;;;;;;2.00;1.80;;;;;;;27.67;47.97;101496.03;1477294;96;21049;-51
2022/06/26 11:32:23;;;;;;;2.58;1.70;;;;;;;27.65;48.25;101497.50;1479409;96;21560;-49
2022/06/26 11:34:52;;;;;;;1.67;1.57;;;;;;;27.65;48.76;101503.33;1493237;95;21139;-48
2022/06/26 11:37:35;;;;;;;1.70;1.30;;;;;;;27.68;49.04;101500.39;1479973;96;21088;-50
2022/06/26 11:40:13;;;;;;;1.42;1.15;;;;;;;27.68;49.44;101505.73;1475230;96;21053;-49
2022/06/26 11:42:42;;;;;;;1.32;1.20;;;;;;;27.67;49.49;101502.23;1491329;95;21070;-48
2022/06/26 11:45:09;;;;;;;2.25;1.50;;;;;;;27.71;49.13;101510.85;1544813;92;21260;-49